Pierces Chapel, Texas
Current Conditions -  °F | °C
As of 8:55 PM on Tuesday 25 Nov 2014 (Local Time) from KJSO Reporting Station
Clear Clear  
Wind Chill: 51°   Ceiling: Unl
Heat Index: 51°   Visibility: 10mi
Dew Point: 31°   Wind: 3mph
Humidity: 46%   Direction: 190°S
Pressure: 30.21"   Gusts: NA
Location:  31.9649°N, 95.3036°W
Report Text: KJSO 260255Z AUTO 19003KT 10SM CLR 10/M01 A3021 RMK AO2 T01031008
Loading
Personal Weather Stations






























Interactive Weather Map New forecast layout! Learn more

10-Day Weather Forecast

Advertisements
Track Severe Weather on mobile